Knife River, Minnesota
Current Conditions -  °F | °C
As of 6:14 PM on Wednesday 22 Oct 2014 (Local Time) from KTWM Reporting Station
Broken Clouds Broken Clouds  
Wind Chill: 52°   Ceiling: 3500
Heat Index: 52°   Visibility: 10mi
Dew Point: 30°   Wind: 7mph
Humidity: 44%   Direction: 80°E
Pressure: 30.04"   Gusts: NA
Location:  46.95°N, 91.78°W
Report Text: KTWM 222314Z AUTO 08006KT 10SM BKN035 11/M01 A3004 RMK AO2
Loading
Personal Weather Stations






























Interactive Weather Map
Tropical Storm Tracking
New forecast layout! Learn more

10-Day Weather Forecast

Advertisements
Track Severe Weather on mobile